sensor_id;sensor_type;location;lat;lon;timestamp;temperature;humidity
61201;DHT22;47065;52.898;6.992;2023-04-15T00:00:15;7.00;99.90
61201;DHT22;47065;52.898;6.992;2023-04-15T00:02:42;6.90;99.90
61201;DHT22;47065;52.898;6.992;2023-04-15T00:05:08;6.90;99.90
61201;DHT22;47065;52.898;6.992;2023-04-15T00:07:34;6.90;99.90
61201;DHT22;47065;52.898;6.992;2023-04-15T00:10:00;6.90;99.90
61201;DHT22;47065;52.898;6.992;2023-04-15T00:12:27;6.90;99.90
61201;DHT22;47065;52.898;6.992;2023-04-15T00:14:53;6.90;99.90
61201;DHT22;47065;52.898;6.992;2023-04-15T00:17:19;6.80;99.90
61201;DHT22;47065;52.898;6.992;2023-04-15T00:19:44;6.80;99.90
61201;DHT22;47065;52.898;6.992;2023-04-15T00:22:11;6.80;99.90
61201;DHT22;47065;52.898;6.992;2023-04-15T00:24:37;6.80;99.90
61201;DHT22;47065;52.898;6.992;2023-04-15T00:27:03;6.80;99.90
61201;DHT22;47065;52.898;6.992;2023-04-15T00:29:29;6.80;99.90
61201;DHT22;47065;52.898;6.992;2023-04-15T00:31:55;6.80;99.90
61201;DHT22;47065;52.898;6.992;2023-04-15T00:34:21;6.80;99.90
61201;DHT22;47065;52.898;6.992;2023-04-15T00:36:47;6.80;99.90
61201;DHT22;47065;52.898;6.992;2023-04-15T00:39:13;6.70;99.90
61201;DHT22;47065;52.898;6.992;2023-04-15T00:41:41;6.70;99.90
61201;DHT22;47065;52.898;6.992;2023-04-15T00:44:07;6.70;99.90
61201;DHT22;47065;52.898;6.992;2023-04-15T00:46:37;6.70;99.90
61201;DHT22;47065;52.898;6.992;2023-04-15T00:49:06;6.70;99.90
61201;DHT22;47065;52.898;6.992;2023-04-15T00:51:32;6.70;99.90
61201;DHT22;47065;52.898;6.992;2023-04-15T00:54:04;6.60;99.90
61201;DHT22;47065;52.898;6.992;2023-04-15T00:56:30;6.60;99.90
61201;DHT22;47065;52.898;6.992;2023-04-15T00:59:00;6.60;99.90
61201;DHT22;47065;52.898;6.992;2023-04-15T01:01:26;6.60;99.90
61201;DHT22;47065;52.898;6.992;2023-04-15T01:03:55;6.50;99.90
61201;DHT22;47065;52.898;6.992;2023-04-15T01:06:21;6.50;99.90
61201;DHT22;47065;52.898;6.992;2023-04-15T01:08:46;6.50;99.90
61201;DHT22;47065;52.898;6.992;2023-04-15T01:11:12;6.40;99.90
61201;DHT22;47065;52.898;6.992;2023-04-15T01:13:38;6.40;99.90
61201;DHT22;47065;52.898;6.992;2023-04-15T01:16:05;6.40;99.90
61201;DHT22;47065;52.898;6.992;2023-04-15T01:18:32;6.40;99.90
61201;DHT22;47065;52.898;6.992;2023-04-15T01:21:00;6.30;99.90
61201;DHT22;47065;52.898;6.992;2023-04-15T01:23:26;6.30;99.90
61201;DHT22;47065;52.898;6.992;2023-04-15T01:25:53;6.20;99.90
61201;DHT22;47065;52.898;6.992;2023-04-15T01:28:20;6.20;99.90
61201;DHT22;47065;52.898;6.992;2023-04-15T01:30:46;6.20;99.90
61201;DHT22;47065;52.898;6.992;2023-04-15T01:33:12;6.10;99.90
61201;DHT22;47065;52.898;6.992;2023-04-15T01:35:37;6.10;99.90
61201;DHT22;47065;52.898;6.992;2023-04-15T01:38:08;6.00;99.90
61201;DHT22;47065;52.898;6.992;2023-04-15T01:40:34;6.00;99.90
61201;DHT22;47065;52.898;6.992;2023-04-15T01:43:03;6.00;99.90
61201;DHT22;47065;52.898;6.992;2023-04-15T01:45:28;5.90;99.90
61201;DHT22;47065;52.898;6.992;2023-04-15T01:47:54;5.90;99.90
61201;DHT22;47065;52.898;6.992;2023-04-15T01:50:20;5.80;99.90
61201;DHT22;47065;52.898;6.992;2023-04-15T01:52:46;5.70;99.90
61201;DHT22;47065;52.898;6.992;2023-04-15T01:55:13;5.70;99.90
61201;DHT22;47065;52.898;6.992;2023-04-15T01:57:39;5.60;99.90
61201;DHT22;47065;52.898;6.992;2023-04-15T02:00:06;5.50;99.90
61201;DHT22;47065;52.898;6.992;2023-04-15T02:02:34;5.40;99.90
61201;DHT22;47065;52.898;6.992;2023-04-15T02:05:00;5.30;99.90
61201;DHT22;47065;52.898;6.992;2023-04-15T02:07:26;5.30;99.90
61201;DHT22;47065;52.898;6.992;2023-04-15T02:09:53;5.10;99.90
61201;DHT22;47065;52.898;6.992;2023-04-15T02:12:18;5.10;99.90
61201;DHT22;47065;52.898;6.992;2023-04-15T02:14:44;5.00;99.90
61201;DHT22;47065;52.898;6.992;2023-04-15T02:17:10;4.90;99.90
61201;DHT22;47065;52.898;6.992;2023-04-15T02:19:36;4.80;99.90
61201;DHT22;47065;52.898;6.992;2023-04-15T02:22:02;4.80;99.90
61201;DHT22;47065;52.898;6.992;2023-04-15T02:24:29;4.60;99.90
61201;DHT22;47065;52.898;6.992;2023-04-15T02:26:55;4.60;99.90
61201;DHT22;47065;52.898;6.992;2023-04-15T02:29:21;4.50;99.90
61201;DHT22;47065;52.898;6.992;2023-04-15T02:31:48;4.40;99.90
61201;DHT22;47065;52.898;6.992;2023-04-15T02:34:14;4.30;99.90
61201;DHT22;47065;52.898;6.992;2023-04-15T02:36:39;4.30;99.90
61201;DHT22;47065;52.898;6.992;2023-04-15T02:39:05;4.20;99.90
61201;DHT22;47065;52.898;6.992;2023-04-15T02:41:31;4.20;99.90
61201;DHT22;47065;52.898;6.992;2023-04-15T02:43:57;4.20;99.90
61201;DHT22;47065;52.898;6.992;2023-04-15T02:46:23;4.20;99.90
61201;DHT22;47065;52.898;6.992;2023-04-15T02:48:49;4.20;99.90
61201;DHT22;47065;52.898;6.992;2023-04-15T02:51:20;4.20;99.90
61201;DHT22;47065;52.898;6.992;2023-04-15T02:53:47;4.20;99.90
61201;DHT22;47065;52.898;6.992;2023-04-15T02:56:14;4.20;99.90
61201;DHT22;47065;52.898;6.992;2023-04-15T02:58:40;4.20;99.90
61201;DHT22;47065;52.898;6.992;2023-04-15T03:01:06;4.20;99.90
61201;DHT22;47065;52.898;6.992;2023-04-15T03:03:33;4.10;99.90
61201;DHT22;47065;52.898;6.992;2023-04-15T03:05:59;4.10;99.90
61201;DHT22;47065;52.898;6.992;2023-04-15T03:08:25;4.10;99.90
61201;DHT22;47065;52.898;6.992;2023-04-15T03:10:51;4.10;99.90
61201;DHT22;47065;52.898;6.992;2023-04-15T03:13:17;4.10;99.90
61201;DHT22;47065;52.898;6.992;2023-04-15T03:15:45;4.10;99.90
61201;DHT22;47065;52.898;6.992;2023-04-15T03:18:11;4.20;99.90
61201;DHT22;47065;52.898;6.992;2023-04-15T03:20:36;4.20;99.90
61201;DHT22;47065;52.898;6.992;2023-04-15T03:23:04;4.20;99.90
61201;DHT22;47065;52.898;6.992;2023-04-15T03:25:30;4.10;99.90
61201;DHT22;47065;52.898;6.992;2023-04-15T03:27:56;4.10;99.90
61201;DHT22;47065;52.898;6.992;2023-04-15T03:30:21;4.00;99.90
61201;DHT22;47065;52.898;6.992;2023-04-15T03:32:47;3.90;99.90
61201;DHT22;47065;52.898;6.992;2023-04-15T03:35:12;3.90;99.90
61201;DHT22;47065;52.898;6.992;2023-04-15T03:37:38;3.90;99.90
61201;DHT22;47065;52.898;6.992;2023-04-15T03:40:04;3.80;99.90
61201;DHT22;47065;52.898;6.992;2023-04-15T03:42:30;3.80;99.90
61201;DHT22;47065;52.898;6.992;2023-04-15T03:44:55;3.80;99.90
61201;DHT22;47065;52.898;6.992;2023-04-15T03:47:21;3.80;99.90
61201;DHT22;47065;52.898;6.992;2023-04-15T03:49:47;3.70;99.90
61201;DHT22;47065;52.898;6.992;2023-04-15T03:52:12;3.80;99.90
61201;DHT22;47065;52.898;6.992;2023-04-15T03:54:38;3.70;99.90
61201;DHT22;47065;52.898;6.992;2023-04-15T03:57:04;3.70;99.90
61201;DHT22;47065;52.898;6.992;2023-04-15T03:59:29;3.70;99.90
61201;DHT22;47065;52.898;6.992;2023-04-15T04:01:55;3.70;99.90
61201;DHT22;47065;52.898;6.992;2023-04-15T04:04:20;3.70;99.90
61201;DHT22;47065;52.898;6.992;2023-04-15T04:06:46;3.70;99.90
61201;DHT22;47065;52.898;6.992;2023-04-15T04:09:12;3.70;99.90
61201;DHT22;47065;52.898;6.992;2023-04-15T04:11:37;3.60;99.90
61201;DHT22;47065;52.898;6.992;2023-04-15T04:14:03;3.60;99.90
61201;DHT22;47065;52.898;6.992;2023-04-15T04:16:29;3.60;99.90
61201;DHT22;47065;52.898;6.992;2023-04-15T04:18:54;3.60;99.90
61201;DHT22;47065;52.898;6.992;2023-04-15T04:21:20;3.60;99.90
61201;DHT22;47065;52.898;6.992;2023-04-15T04:23:46;3.60;99.90
61201;DHT22;47065;52.898;6.992;2023-04-15T04:26:12;3.60;99.90
61201;DHT22;47065;52.898;6.992;2023-04-15T04:28:37;3.50;99.90
61201;DHT22;47065;52.898;6.992;2023-04-15T04:31:05;3.50;99.90
61201;DHT22;47065;52.898;6.992;2023-04-15T04:33:32;3.50;99.90
61201;DHT22;47065;52.898;6.992;2023-04-15T04:35:57;3.50;99.90
61201;DHT22;47065;52.898;6.992;2023-04-15T04:38:23;3.40;99.90
61201;DHT22;47065;52.898;6.992;2023-04-15T04:40:49;3.40;99.90
61201;DHT22;47065;52.898;6.992;2023-04-15T04:43:15;3.40;99.90
61201;DHT22;47065;52.898;6.992;2023-04-15T04:45:40;3.40;99.90
61201;DHT22;47065;52.898;6.992;2023-04-15T04:48:06;3.40;99.90
61201;DHT22;47065;52.898;6.992;2023-04-15T04:50:33;3.40;99.90
61201;DHT22;47065;52.898;6.992;2023-04-15T04:53:00;3.40;99.90
61201;DHT22;47065;52.898;6.992;2023-04-15T04:55:26;3.40;99.90
61201;DHT22;47065;52.898;6.992;2023-04-15T04:57:52;3.40;99.90
61201;DHT22;47065;52.898;6.992;2023-04-15T05:00:17;3.40;99.90
61201;DHT22;47065;52.898;6.992;2023-04-15T05:02:44;3.40;99.90
61201;DHT22;47065;52.898;6.992;2023-04-15T05:05:10;3.40;99.90
61201;DHT22;47065;52.898;6.992;2023-04-15T05:07:36;3.40;99.90
61201;DHT22;47065;52.898;6.992;2023-04-15T05:10:02;3.30;99.90
61201;DHT22;47065;52.898;6.992;2023-04-15T05:12:28;3.30;99.90
61201;DHT22;47065;52.898;6.992;2023-04-15T05:14:54;3.30;99.90
61201;DHT22;47065;52.898;6.992;2023-04-15T05:17:19;3.30;99.90
61201;DHT22;47065;52.898;6.992;2023-04-15T05:19:45;3.20;99.90
61201;DHT22;47065;52.898;6.992;2023-04-15T05:22:11;3.20;99.90
61201;DHT22;47065;52.898;6.992;2023-04-15T05:24:36;3.20;99.90
61201;DHT22;47065;52.898;6.992;2023-04-15T05:27:02;3.30;99.90
61201;DHT22;47065;52.898;6.992;2023-04-15T05:29:28;3.30;99.90
61201;DHT22;47065;52.898;6.992;2023-04-15T05:31:53;3.30;99.90
61201;DHT22;47065;52.898;6.992;2023-04-15T05:34:19;3.30;99.90
61201;DHT22;47065;52.898;6.992;2023-04-15T05:36:44;3.30;99.90
61201;DHT22;47065;52.898;6.992;2023-04-15T05:39:10;3.30;99.90
61201;DHT22;47065;52.898;6.992;2023-04-15T05:41:36;3.40;99.90
61201;DHT22;47065;52.898;6.992;2023-04-15T05:44:02;3.40;99.90
61201;DHT22;47065;52.898;6.992;2023-04-15T05:46:28;3.40;99.90
61201;DHT22;47065;52.898;6.992;2023-04-15T05:48:53;3.40;99.90
61201;DHT22;47065;52.898;6.992;2023-04-15T05:51:19;3.50;99.90
61201;DHT22;47065;52.898;6.992;2023-04-15T05:53:45;3.50;99.90
61201;DHT22;47065;52.898;6.992;2023-04-15T05:56:11;3.50;99.90
61201;DHT22;47065;52.898;6.992;2023-04-15T05:58:36;3.60;99.90
61201;DHT22;47065;52.898;6.992;2023-04-15T06:01:02;3.60;99.90
61201;DHT22;47065;52.898;6.992;2023-04-15T06:03:28;3.70;99.90
61201;DHT22;47065;52.898;6.992;2023-04-15T06:05:54;3.80;99.90
61201;DHT22;47065;52.898;6.992;2023-04-15T06:08:20;3.90;99.90
61201;DHT22;47065;52.898;6.992;2023-04-15T06:10:46;4.00;99.90
61201;DHT22;47065;52.898;6.992;2023-04-15T06:13:12;4.20;99.90
61201;DHT22;47065;52.898;6.992;2023-04-15T06:15:38;4.40;99.90
61201;DHT22;47065;52.898;6.992;2023-04-15T06:18:03;4.70;99.90
61201;DHT22;47065;52.898;6.992;2023-04-15T06:20:29;4.90;99.90
61201;DHT22;47065;52.898;6.992;2023-04-15T06:22:56;5.10;99.90
61201;DHT22;47065;52.898;6.992;2023-04-15T06:25:21;5.20;99.90
61201;DHT22;47065;52.898;6.992;2023-04-15T06:27:47;5.40;99.90
61201;DHT22;47065;52.898;6.992;2023-04-15T06:30:13;5.50;99.90
61201;DHT22;47065;52.898;6.992;2023-04-15T06:32:39;5.60;99.90
61201;DHT22;47065;52.898;6.992;2023-04-15T06:35:04;5.80;99.90
61201;DHT22;47065;52.898;6.992;2023-04-15T06:37:30;5.90;99.90
61201;DHT22;47065;52.898;6.992;2023-04-15T06:39:57;6.00;99.90
61201;DHT22;47065;52.898;6.992;2023-04-15T06:42:22;6.10;99.90
61201;DHT22;47065;52.898;6.992;2023-04-15T06:44:48;6.20;99.90
61201;DHT22;47065;52.898;6.992;2023-04-15T06:47:14;6.30;99.90
61201;DHT22;47065;52.898;6.992;2023-04-15T06:49:40;6.40;99.90
61201;DHT22;47065;52.898;6.992;2023-04-15T06:52:07;6.40;99.90
61201;DHT22;47065;52.898;6.992;2023-04-15T06:54:33;6.50;99.90
61201;DHT22;47065;52.898;6.992;2023-04-15T06:56:59;6.60;99.90
61201;DHT22;47065;52.898;6.992;2023-04-15T06:59:24;6.70;99.90
61201;DHT22;47065;52.898;6.992;2023-04-15T07:01:50;6.80;99.90
61201;DHT22;47065;52.898;6.992;2023-04-15T07:04:16;6.90;99.90
61201;DHT22;47065;52.898;6.992;2023-04-15T07:06:42;6.90;99.90
61201;DHT22;47065;52.898;6.992;2023-04-15T07:09:07;7.10;99.90
61201;DHT22;47065;52.898;6.992;2023-04-15T07:11:33;7.10;99.90
61201;DHT22;47065;52.898;6.992;2023-04-15T07:13:59;7.20;99.90
61201;DHT22;47065;52.898;6.992;2023-04-15T07:16:24;7.30;99.90
61201;DHT22;47065;52.898;6.992;2023-04-15T07:18:50;7.40;99.90
61201;DHT22;47065;52.898;6.992;2023-04-15T07:21:16;7.40;99.90
61201;DHT22;47065;52.898;6.992;2023-04-15T07:23:42;7.50;99.90
61201;DHT22;47065;52.898;6.992;2023-04-15T07:26:08;7.60;99.90
61201;DHT22;47065;52.898;6.992;2023-04-15T07:28:33;7.70;99.90
61201;DHT22;47065;52.898;6.992;2023-04-15T07:30:59;7.80;99.90
61201;DHT22;47065;52.898;6.992;2023-04-15T07:33:25;7.80;99.90
61201;DHT22;47065;52.898;6.992;2023-04-15T07:35:50;7.90;99.90
61201;DHT22;47065;52.898;6.992;2023-04-15T07:38:16;7.90;99.90
61201;DHT22;47065;52.898;6.992;2023-04-15T07:40:42;8.00;99.90
61201;DHT22;47065;52.898;6.992;2023-04-15T07:43:08;8.10;99.90
61201;DHT22;47065;52.898;6.992;2023-04-15T07:45:34;8.10;99.90
61201;DHT22;47065;52.898;6.992;2023-04-15T07:48:00;8.20;99.90
61201;DHT22;47065;52.898;6.992;2023-04-15T07:50:27;8.30;99.90
61201;DHT22;47065;52.898;6.992;2023-04-15T07:52:53;8.30;99.90
61201;DHT22;47065;52.898;6.992;2023-04-15T07:55:18;8.40;99.90
61201;DHT22;47065;52.898;6.992;2023-04-15T07:57:47;8.40;99.90
61201;DHT22;47065;52.898;6.992;2023-04-15T08:00:13;8.50;99.90
61201;DHT22;47065;52.898;6.992;2023-04-15T08:02:41;8.50;99.90
61201;DHT22;47065;52.898;6.992;2023-04-15T08:05:08;8.60;99.90
61201;DHT22;47065;52.898;6.992;2023-04-15T08:07:36;8.60;99.90
61201;DHT22;47065;52.898;6.992;2023-04-15T08:10:03;8.70;99.90
61201;DHT22;47065;52.898;6.992;2023-04-15T08:12:28;8.70;99.90
61201;DHT22;47065;52.898;6.992;2023-04-15T08:14:54;8.70;99.90
61201;DHT22;47065;52.898;6.992;2023-04-15T08:17:20;8.70;99.90
61201;DHT22;47065;52.898;6.992;2023-04-15T08:19:46;8.80;99.90
61201;DHT22;47065;52.898;6.992;2023-04-15T08:22:13;8.80;99.90
61201;DHT22;47065;52.898;6.992;2023-04-15T08:24:38;8.90;99.90
61201;DHT22;47065;52.898;6.992;2023-04-15T08:27:04;8.90;99.90
61201;DHT22;47065;52.898;6.992;2023-04-15T08:29:31;9.00;99.90
61201;DHT22;47065;52.898;6.992;2023-04-15T08:31:58;9.10;99.90
61201;DHT22;47065;52.898;6.992;2023-04-15T08:34:25;9.00;99.90
61201;DHT22;47065;52.898;6.992;2023-04-15T08:36:50;9.10;99.90
61201;DHT22;47065;52.898;6.992;2023-04-15T08:39:16;9.10;99.90
61201;DHT22;47065;52.898;6.992;2023-04-15T08:41:47;9.10;99.90
61201;DHT22;47065;52.898;6.992;2023-04-15T08:44:17;9.20;99.90
61201;DHT22;47065;52.898;6.992;2023-04-15T08:46:43;9.20;99.90
61201;DHT22;47065;52.898;6.992;2023-04-15T08:49:12;9.10;99.90
61201;DHT22;47065;52.898;6.992;2023-04-15T08:51:41;9.10;99.90
61201;DHT22;47065;52.898;6.992;2023-04-15T08:54:10;9.00;99.90
61201;DHT22;47065;52.898;6.992;2023-04-15T08:56:37;9.00;99.90
61201;DHT22;47065;52.898;6.992;2023-04-15T08:59:03;9.00;99.90
61201;DHT22;47065;52.898;6.992;2023-04-15T09:01:31;9.10;99.90
61201;DHT22;47065;52.898;6.992;2023-04-15T09:03:58;9.20;99.90
61201;DHT22;47065;52.898;6.992;2023-04-15T09:06:24;9.40;99.90
61201;DHT22;47065;52.898;6.992;2023-04-15T09:08:51;9.50;99.90
61201;DHT22;47065;52.898;6.992;2023-04-15T09:11:17;9.60;99.90
61201;DHT22;47065;52.898;6.992;2023-04-15T09:13:44;9.60;99.90
61201;DHT22;47065;52.898;6.992;2023-04-15T09:16:09;9.50;99.90
61201;DHT22;47065;52.898;6.992;2023-04-15T09:18:37;9.50;99.90
61201;DHT22;47065;52.898;6.992;2023-04-15T09:21:13;9.50;99.90
61201;DHT22;47065;52.898;6.992;2023-04-15T09:23:54;9.40;99.90
61201;DHT22;47065;52.898;6.992;2023-04-15T09:26:30;9.40;99.90
61201;DHT22;47065;52.898;6.992;2023-04-15T09:29:03;9.50;99.90
61201;DHT22;47065;52.898;6.992;2023-04-15T09:31:29;9.50;99.90
61201;DHT22;47065;52.898;6.992;2023-04-15T09:33:55;9.50;99.90
61201;DHT22;47065;52.898;6.992;2023-04-15T09:36:21;9.50;99.90
61201;DHT22;47065;52.898;6.992;2023-04-15T09:38:57;9.50;99.90
61201;DHT22;47065;52.898;6.992;2023-04-15T09:41:24;9.50;99.90
61201;DHT22;47065;52.898;6.992;2023-04-15T09:43:50;9.50;99.90
61201;DHT22;47065;52.898;6.992;2023-04-15T09:46:16;9.40;99.90
61201;DHT22;47065;52.898;6.992;2023-04-15T09:48:41;9.40;99.90
61201;DHT22;47065;52.898;6.992;2023-04-15T09:51:07;9.40;99.90
61201;DHT22;47065;52.898;6.992;2023-04-15T09:53:35;9.50;99.90
61201;DHT22;47065;52.898;6.992;2023-04-15T09:56:02;9.50;99.90
61201;DHT22;47065;52.898;6.992;2023-04-15T09:58:29;9.50;99.90
61201;DHT22;47065;52.898;6.992;2023-04-15T10:00:57;9.60;99.90
61201;DHT22;47065;52.898;6.992;2023-04-15T10:03:23;9.50;99.90
61201;DHT22;47065;52.898;6.992;2023-04-15T10:05:51;9.50;99.90
61201;DHT22;47065;52.898;6.992;2023-04-15T10:08:25;9.50;99.90
61201;DHT22;47065;52.898;6.992;2023-04-15T10:10:51;9.50;99.90
61201;DHT22;47065;52.898;6.992;2023-04-15T10:13:23;9.50;99.90
61201;DHT22;47065;52.898;6.992;2023-04-15T10:16:10;9.50;99.90
61201;DHT22;47065;52.898;6.992;2023-04-15T10:18:39;9.50;99.90
61201;DHT22;47065;52.898;6.992;2023-04-15T10:21:06;9.50;99.90
61201;DHT22;47065;52.898;6.992;2023-04-15T10:23:32;9.50;99.90
61201;DHT22;47065;52.898;6.992;2023-04-15T10:25:58;9.50;99.90
61201;DHT22;47065;52.898;6.992;2023-04-15T10:28:25;9.50;99.90
61201;DHT22;47065;52.898;6.992;2023-04-15T10:30:51;9.40;99.90
61201;DHT22;47065;52.898;6.992;2023-04-15T10:33:21;9.40;99.90
61201;DHT22;47065;52.898;6.992;2023-04-15T10:35:48;9.40;99.90
61201;DHT22;47065;52.898;6.992;2023-04-15T10:38:36;9.50;99.90
61201;DHT22;47065;52.898;6.992;2023-04-15T10:41:16;9.50;99.90
61201;DHT22;47065;52.898;6.992;2023-04-15T10:44:01;9.50;99.90
61201;DHT22;47065;52.898;6.992;2023-04-15T10:46:37;9.40;99.90
61201;DHT22;47065;52.898;6.992;2023-04-15T10:49:13;9.40;99.90
61201;DHT22;47065;52.898;6.992;2023-04-15T10:51:44;9.40;99.90
61201;DHT22;47065;52.898;6.992;2023-04-15T10:54:16;9.40;99.90
61201;DHT22;47065;52.898;6.992;2023-04-15T10:59:30;9.40;99.90
61201;DHT22;47065;52.898;6.992;2023-04-15T11:02:01;9.40;99.90
61201;DHT22;47065;52.898;6.992;2023-04-15T11:04:56;9.40;99.90
61201;DHT22;47065;52.898;6.992;2023-04-15T11:07:48;9.40;99.90
61201;DHT22;47065;52.898;6.992;2023-04-15T11:13:14;9.40;99.90
61201;DHT22;47065;52.898;6.992;2023-04-15T11:15:46;9.40;99.90
61201;DHT22;47065;52.898;6.992;2023-04-15T11:20:46;9.40;99.90
61201;DHT22;47065;52.898;6.992;2023-04-15T11:23:13;9.40;99.90
61201;DHT22;47065;52.898;6.992;2023-04-15T11:25:40;9.30;99.90
61201;DHT22;47065;52.898;6.992;2023-04-15T11:28:06;9.30;99.90
61201;DHT22;47065;52.898;6.992;2023-04-15T11:30:35;9.30;99.90
61201;DHT22;47065;52.898;6.992;2023-04-15T11:33:06;9.20;99.90
61201;DHT22;47065;52.898;6.992;2023-04-15T11:35:33;9.20;99.90
61201;DHT22;47065;52.898;6.992;2023-04-15T11:38:03;9.20;99.90
61201;DHT22;47065;52.898;6.992;2023-04-15T11:40:30;9.20;99.90
61201;DHT22;47065;52.898;6.992;2023-04-15T11:43:12;9.20;99.90
61201;DHT22;47065;52.898;6.992;2023-04-15T11:45:56;9.10;99.90
61201;DHT22;47065;52.898;6.992;2023-04-15T11:48:30;9.10;99.90
61201;DHT22;47065;52.898;6.992;2023-04-15T11:51:03;9.00;99.90
61201;DHT22;47065;52.898;6.992;2023-04-15T11:53:47;9.00;99.90
61201;DHT22;47065;52.898;6.992;2023-04-15T11:56:21;9.00;99.90
61201;DHT22;47065;52.898;6.992;2023-04-15T11:58:48;9.00;99.90
61201;DHT22;47065;52.898;6.992;2023-04-15T12:01:15;8.90;99.90
61201;DHT22;47065;52.898;6.992;2023-04-15T12:03:45;9.00;99.90
61201;DHT22;47065;52.898;6.992;2023-04-15T12:06:18;9.00;99.90
61201;DHT22;47065;52.898;6.992;2023-04-15T12:08:51;9.00;99.90
61201;DHT22;47065;52.898;6.992;2023-04-15T12:13:48;9.10;99.90
61201;DHT22;47065;52.898;6.992;2023-04-15T12:16:18;9.20;99.90
61201;DHT22;47065;52.898;6.992;2023-04-15T12:18:54;9.20;99.90
61201;DHT22;47065;52.898;6.992;2023-04-15T12:21:25;9.20;99.90
61201;DHT22;47065;52.898;6.992;2023-04-15T12:23:55;9.20;99.90
61201;DHT22;47065;52.898;6.992;2023-04-15T12:26:29;9.10;99.90
61201;DHT22;47065;52.898;6.992;2023-04-15T12:29:02;9.20;99.90
61201;DHT22;47065;52.898;6.992;2023-04-15T12:31:28;9.20;99.90
61201;DHT22;47065;52.898;6.992;2023-04-15T12:33:55;9.20;99.90
61201;DHT22;47065;52.898;6.992;2023-04-15T12:36:21;9.20;99.90
61201;DHT22;47065;52.898;6.992;2023-04-15T12:38:46;9.20;99.90
61201;DHT22;47065;52.898;6.992;2023-04-15T12:41:12;9.20;99.90
61201;DHT22;47065;52.898;6.992;2023-04-15T12:43:38;9.10;99.90
61201;DHT22;47065;52.898;6.992;2023-04-15T12:46:03;9.10;99.90
61201;DHT22;47065;52.898;6.992;2023-04-15T12:48:29;9.10;99.90
61201;DHT22;47065;52.898;6.992;2023-04-15T12:50:55;9.00;99.90
61201;DHT22;47065;52.898;6.992;2023-04-15T12:53:21;9.00;99.90
61201;DHT22;47065;52.898;6.992;2023-04-15T12:55:46;9.00;99.90
61201;DHT22;47065;52.898;6.992;2023-04-15T12:58:12;9.00;99.90
61201;DHT22;47065;52.898;6.992;2023-04-15T13:00:38;8.90;99.90
61201;DHT22;47065;52.898;6.992;2023-04-15T13:03:04;8.90;99.90
61201;DHT22;47065;52.898;6.992;2023-04-15T13:05:29;9.00;99.90
61201;DHT22;47065;52.898;6.992;2023-04-15T13:07:55;8.90;99.90
61201;DHT22;47065;52.898;6.992;2023-04-15T13:10:21;8.90;99.90
61201;DHT22;47065;52.898;6.992;2023-04-15T13:12:51;8.90;99.90
61201;DHT22;47065;52.898;6.992;2023-04-15T13:15:18;8.90;99.90
61201;DHT22;47065;52.898;6.992;2023-04-15T13:17:45;8.80;99.90
61201;DHT22;47065;52.898;6.992;2023-04-15T13:20:11;8.80;99.90
61201;DHT22;47065;52.898;6.992;2023-04-15T13:22:36;8.80;99.90
61201;DHT22;47065;52.898;6.992;2023-04-15T13:25:02;8.80;99.90
61201;DHT22;47065;52.898;6.992;2023-04-15T13:27:28;8.70;99.90
61201;DHT22;47065;52.898;6.992;2023-04-15T13:29:53;8.70;99.90
61201;DHT22;47065;52.898;6.992;2023-04-15T13:32:19;8.70;99.90
61201;DHT22;47065;52.898;6.992;2023-04-15T13:34:45;8.70;99.90
61201;DHT22;47065;52.898;6.992;2023-04-15T13:37:10;8.70;99.90
61201;DHT22;47065;52.898;6.992;2023-04-15T13:39:36;8.70;99.90
61201;DHT22;47065;52.898;6.992;2023-04-15T13:42:02;8.70;99.90
61201;DHT22;47065;52.898;6.992;2023-04-15T13:44:28;8.70;99.90
61201;DHT22;47065;52.898;6.992;2023-04-15T13:46:54;8.70;99.90
61201;DHT22;47065;52.898;6.992;2023-04-15T13:49:20;8.70;99.90
61201;DHT22;47065;52.898;6.992;2023-04-15T13:51:46;8.70;99.90
61201;DHT22;47065;52.898;6.992;2023-04-15T13:54:12;8.60;99.90
61201;DHT22;47065;52.898;6.992;2023-04-15T13:56:37;8.60;99.90
61201;DHT22;47065;52.898;6.992;2023-04-15T13:59:03;8.60;99.90
61201;DHT22;47065;52.898;6.992;2023-04-15T14:01:28;8.60;99.90
61201;DHT22;47065;52.898;6.992;2023-04-15T14:03:54;8.60;99.90
61201;DHT22;47065;52.898;6.992;2023-04-15T14:06:20;8.60;99.90
61201;DHT22;47065;52.898;6.992;2023-04-15T14:08:46;8.60;99.90
61201;DHT22;47065;52.898;6.992;2023-04-15T14:11:12;8.60;99.90
61201;DHT22;47065;52.898;6.992;2023-04-15T14:13:37;8.60;99.90
61201;DHT22;47065;52.898;6.992;2023-04-15T14:16:03;8.60;99.90
61201;DHT22;47065;52.898;6.992;2023-04-15T14:18:29;8.60;99.90
61201;DHT22;47065;52.898;6.992;2023-04-15T14:20:55;8.70;99.90
61201;DHT22;47065;52.898;6.992;2023-04-15T14:23:21;8.70;99.90
61201;DHT22;47065;52.898;6.992;2023-04-15T14:25:47;8.70;99.90
61201;DHT22;47065;52.898;6.992;2023-04-15T14:28:13;8.60;99.90
61201;DHT22;47065;52.898;6.992;2023-04-15T14:30:39;8.60;99.90
61201;DHT22;47065;52.898;6.992;2023-04-15T14:33:05;8.70;99.90
61201;DHT22;47065;52.898;6.992;2023-04-15T14:35:30;8.70;99.90
61201;DHT22;47065;52.898;6.992;2023-04-15T14:37:56;8.60;99.90
61201;DHT22;47065;52.898;6.992;2023-04-15T14:40:22;8.60;99.90
61201;DHT22;47065;52.898;6.992;2023-04-15T14:42:48;8.60;99.90
61201;DHT22;47065;52.898;6.992;2023-04-15T14:45:14;8.60;99.90
61201;DHT22;47065;52.898;6.992;2023-04-15T14:47:39;8.60;99.90
61201;DHT22;47065;52.898;6.992;2023-04-15T14:50:05;8.60;99.90
61201;DHT22;47065;52.898;6.992;2023-04-15T14:52:31;8.60;99.90
61201;DHT22;47065;52.898;6.992;2023-04-15T14:55:11;8.50;99.90
61201;DHT22;47065;52.898;6.992;2023-04-15T14:57:37;8.50;99.90
61201;DHT22;47065;52.898;6.992;2023-04-15T15:00:04;8.50;99.90
61201;DHT22;47065;52.898;6.992;2023-04-15T15:02:32;8.50;99.90
61201;DHT22;47065;52.898;6.992;2023-04-15T15:04:59;8.50;99.90
61201;DHT22;47065;52.898;6.992;2023-04-15T15:07:25;8.50;99.90
61201;DHT22;47065;52.898;6.992;2023-04-15T15:09:50;8.50;99.90
61201;DHT22;47065;52.898;6.992;2023-04-15T15:12:16;8.50;99.90
61201;DHT22;47065;52.898;6.992;2023-04-15T15:14:42;8.50;99.90
61201;DHT22;47065;52.898;6.992;2023-04-15T15:17:08;8.50;99.90
61201;DHT22;47065;52.898;6.992;2023-04-15T15:19:34;8.50;99.90
61201;DHT22;47065;52.898;6.992;2023-04-15T15:22:00;8.50;99.90
61201;DHT22;47065;52.898;6.992;2023-04-15T15:24:26;8.50;99.90
61201;DHT22;47065;52.898;6.992;2023-04-15T15:26:51;8.50;99.90
61201;DHT22;47065;52.898;6.992;2023-04-15T15:29:17;8.50;99.90
61201;DHT22;47065;52.898;6.992;2023-04-15T15:31:42;8.50;99.90
61201;DHT22;47065;52.898;6.992;2023-04-15T15:34:08;8.50;99.90
61201;DHT22;47065;52.898;6.992;2023-04-15T15:36:33;8.50;99.90
61201;DHT22;47065;52.898;6.992;2023-04-15T15:38:59;8.50;99.90
61201;DHT22;47065;52.898;6.992;2023-04-15T15:41:25;8.50;99.90
61201;DHT22;47065;52.898;6.992;2023-04-15T15:43:51;8.40;99.90
61201;DHT22;47065;52.898;6.992;2023-04-15T15:46:17;8.40;99.90
61201;DHT22;47065;52.898;6.992;2023-04-15T15:48:43;8.40;99.90
61201;DHT22;47065;52.898;6.992;2023-04-15T15:51:09;8.40;99.90
61201;DHT22;47065;52.898;6.992;2023-04-15T15:53:34;8.40;99.90